Flugplatz Hamburg-Finkenwerder

Bericht für EDHI

vom 28.09. um 21:50 UTC

Wind 3 kt aus 110°

Sichtweite 10 km oder mehr

keine Wolken

Temperatur 12.0°C

Taupunkt 11.0°C

Luftfeuchtigkeit 94%

Luftdruck 1020 hPa

EDHI 282150Z AUTO 11003KT 9999 // NCD 12/11 Q1020
Keine Prognose (TAF) verfügbar.
Impressum